sensor_id;sensor_type;location;lat;lon;timestamp;P1;durP1;ratioP1;P2;durP2;ratioP2
61897;SDS011;47850;50.274;18.908;2023-08-07T00:02:11;5.00;;;4.10;;
61897;SDS011;47850;50.274;18.908;2023-08-07T00:04:39;4.20;;;3.40;;
61897;SDS011;47850;50.274;18.908;2023-08-07T00:07:06;5.30;;;3.90;;
61897;SDS011;47850;50.274;18.908;2023-08-07T00:09:34;5.20;;;4.00;;
61897;SDS011;47850;50.274;18.908;2023-08-07T00:12:02;6.40;;;4.10;;
61897;SDS011;47850;50.274;18.908;2023-08-07T00:14:30;4.90;;;3.90;;
61897;SDS011;47850;50.274;18.908;2023-08-07T00:16:58;6.00;;;4.50;;
61897;SDS011;47850;50.274;18.908;2023-08-07T00:19:26;5.40;;;4.20;;
61897;SDS011;47850;50.274;18.908;2023-08-07T00:21:54;4.50;;;3.70;;
61897;SDS011;47850;50.274;18.908;2023-08-07T00:24:22;6.40;;;4.40;;
61897;SDS011;47850;50.274;18.908;2023-08-07T00:26:49;7.20;;;4.40;;
61897;SDS011;47850;50.274;18.908;2023-08-07T00:29:17;6.00;;;4.00;;
61897;SDS011;47850;50.274;18.908;2023-08-07T00:31:45;6.80;;;4.40;;
61897;SDS011;47850;50.274;18.908;2023-08-07T00:34:13;6.80;;;4.80;;
61897;SDS011;47850;50.274;18.908;2023-08-07T00:36:40;8.70;;;4.70;;
61897;SDS011;47850;50.274;18.908;2023-08-07T00:39:08;6.80;;;4.50;;
61897;SDS011;47850;50.274;18.908;2023-08-07T00:41:36;6.70;;;5.30;;
61897;SDS011;47850;50.274;18.908;2023-08-07T00:44:04;9.10;;;5.10;;
61897;SDS011;47850;50.274;18.908;2023-08-07T00:46:31;7.40;;;4.70;;
61897;SDS011;47850;50.274;18.908;2023-08-07T00:48:59;7.20;;;4.50;;
61897;SDS011;47850;50.274;18.908;2023-08-07T00:51:27;7.50;;;5.10;;
61897;SDS011;47850;50.274;18.908;2023-08-07T00:53:55;8.80;;;5.50;;
61897;SDS011;47850;50.274;18.908;2023-08-07T00:56:23;7.20;;;5.70;;
61897;SDS011;47850;50.274;18.908;2023-08-07T00:58:51;6.20;;;4.70;;
61897;SDS011;47850;50.274;18.908;2023-08-07T01:01:19;7.60;;;5.80;;
61897;SDS011;47850;50.274;18.908;2023-08-07T01:03:47;8.90;;;5.30;;
61897;SDS011;47850;50.274;18.908;2023-08-07T01:06:15;9.40;;;6.20;;
61897;SDS011;47850;50.274;18.908;2023-08-07T01:08:43;8.40;;;6.60;;
61897;SDS011;47850;50.274;18.908;2023-08-07T01:17:00;7.30;;;6.00;;
61897;SDS011;47850;50.274;18.908;2023-08-07T01:19:33;8.60;;;6.70;;
61897;SDS011;47850;50.274;18.908;2023-08-07T01:24:37;8.80;;;6.40;;
61897;SDS011;47850;50.274;18.908;2023-08-07T01:35:07;10.70;;;5.80;;
61897;SDS011;47850;50.274;18.908;2023-08-07T01:37:40;6.20;;;4.90;;
61897;SDS011;47850;50.274;18.908;2023-08-07T01:40:09;7.20;;;5.50;;
61897;SDS011;47850;50.274;18.908;2023-08-07T01:42:38;6.40;;;5.20;;
61897;SDS011;47850;50.274;18.908;2023-08-07T01:45:06;10.50;;;5.10;;
61897;SDS011;47850;50.274;18.908;2023-08-07T01:47:34;9.80;;;5.70;;
61897;SDS011;47850;50.274;18.908;2023-08-07T01:50:02;6.80;;;5.20;;
61897;SDS011;47850;50.274;18.908;2023-08-07T01:52:30;8.50;;;6.00;;
61897;SDS011;47850;50.274;18.908;2023-08-07T01:54:58;6.80;;;4.70;;
61897;SDS011;47850;50.274;18.908;2023-08-07T01:57:26;6.50;;;5.60;;
61897;SDS011;47850;50.274;18.908;2023-08-07T01:59:54;11.40;;;6.10;;
61897;SDS011;47850;50.274;18.908;2023-08-07T02:02:21;5.80;;;4.50;;
61897;SDS011;47850;50.274;18.908;2023-08-07T02:04:49;6.40;;;5.10;;
61897;SDS011;47850;50.274;18.908;2023-08-07T02:07:17;5.90;;;4.40;;
61897;SDS011;47850;50.274;18.908;2023-08-07T02:09:45;11.30;;;5.60;;
61897;SDS011;47850;50.274;18.908;2023-08-07T02:12:13;5.50;;;5.00;;
61897;SDS011;47850;50.274;18.908;2023-08-07T02:14:40;6.50;;;4.50;;
61897;SDS011;47850;50.274;18.908;2023-08-07T02:17:08;8.30;;;5.20;;
61897;SDS011;47850;50.274;18.908;2023-08-07T02:19:36;9.30;;;5.70;;
61897;SDS011;47850;50.274;18.908;2023-08-07T02:22:04;8.10;;;4.90;;
61897;SDS011;47850;50.274;18.908;2023-08-07T02:24:32;6.20;;;5.60;;
61897;SDS011;47850;50.274;18.908;2023-08-07T02:27:00;5.60;;;4.80;;
61897;SDS011;47850;50.274;18.908;2023-08-07T02:29:28;7.20;;;5.60;;
61897;SDS011;47850;50.274;18.908;2023-08-07T02:31:57;7.70;;;5.00;;
61897;SDS011;47850;50.274;18.908;2023-08-07T02:34:25;9.60;;;5.50;;
61897;SDS011;47850;50.274;18.908;2023-08-07T02:36:53;9.50;;;5.50;;
61897;SDS011;47850;50.274;18.908;2023-08-07T02:39:20;6.60;;;4.60;;
61897;SDS011;47850;50.274;18.908;2023-08-07T02:41:48;8.20;;;5.40;;
61897;SDS011;47850;50.274;18.908;2023-08-07T02:44:16;9.30;;;5.70;;
61897;SDS011;47850;50.274;18.908;2023-08-07T02:46:47;5.90;;;4.50;;
61897;SDS011;47850;50.274;18.908;2023-08-07T02:49:15;12.80;;;5.60;;
61897;SDS011;47850;50.274;18.908;2023-08-07T02:51:43;6.60;;;5.30;;
61897;SDS011;47850;50.274;18.908;2023-08-07T02:54:10;7.20;;;5.20;;
61897;SDS011;47850;50.274;18.908;2023-08-07T02:56:38;6.90;;;5.80;;
61897;SDS011;47850;50.274;18.908;2023-08-07T02:59:06;7.20;;;5.20;;
61897;SDS011;47850;50.274;18.908;2023-08-07T03:01:34;10.10;;;5.80;;
61897;SDS011;47850;50.274;18.908;2023-08-07T03:04:01;5.30;;;4.50;;
61897;SDS011;47850;50.274;18.908;2023-08-07T03:06:29;7.20;;;5.10;;
61897;SDS011;47850;50.274;18.908;2023-08-07T03:08:57;7.70;;;6.00;;
61897;SDS011;47850;50.274;18.908;2023-08-07T03:11:25;8.20;;;5.40;;
61897;SDS011;47850;50.274;18.908;2023-08-07T03:13:53;7.10;;;5.50;;
61897;SDS011;47850;50.274;18.908;2023-08-07T03:16:21;7.70;;;5.50;;
61897;SDS011;47850;50.274;18.908;2023-08-07T03:18:48;6.80;;;5.80;;
61897;SDS011;47850;50.274;18.908;2023-08-07T03:21:16;9.40;;;6.20;;
61897;SDS011;47850;50.274;18.908;2023-08-07T03:23:44;8.00;;;4.90;;
61897;SDS011;47850;50.274;18.908;2023-08-07T03:26:12;11.20;;;5.80;;
61897;SDS011;47850;50.274;18.908;2023-08-07T03:28:40;7.50;;;5.40;;
61897;SDS011;47850;50.274;18.908;2023-08-07T03:31:08;7.80;;;5.20;;
61897;SDS011;47850;50.274;18.908;2023-08-07T03:33:35;7.00;;;5.60;;
61897;SDS011;47850;50.274;18.908;2023-08-07T03:36:03;6.60;;;5.70;;
61897;SDS011;47850;50.274;18.908;2023-08-07T03:38:31;7.40;;;5.90;;
61897;SDS011;47850;50.274;18.908;2023-08-07T03:40:59;7.30;;;4.50;;
61897;SDS011;47850;50.274;18.908;2023-08-07T03:43:27;5.10;;;4.00;;
61897;SDS011;47850;50.274;18.908;2023-08-07T03:45:55;7.20;;;5.00;;
61897;SDS011;47850;50.274;18.908;2023-08-07T03:48:26;7.80;;;5.50;;
61897;SDS011;47850;50.274;18.908;2023-08-07T03:51:01;5.60;;;4.80;;
61897;SDS011;47850;50.274;18.908;2023-08-07T03:53:32;5.60;;;3.50;;
61897;SDS011;47850;50.274;18.908;2023-08-07T03:56:00;4.60;;;4.00;;
61897;SDS011;47850;50.274;18.908;2023-08-07T03:58:28;5.30;;;4.40;;
61897;SDS011;47850;50.274;18.908;2023-08-07T04:00:56;5.30;;;3.90;;
61897;SDS011;47850;50.274;18.908;2023-08-07T04:03:24;5.10;;;4.20;;
61897;SDS011;47850;50.274;18.908;2023-08-07T04:05:52;6.60;;;4.20;;
61897;SDS011;47850;50.274;18.908;2023-08-07T04:08:21;4.80;;;3.90;;
61897;SDS011;47850;50.274;18.908;2023-08-07T04:11:05;5.60;;;3.50;;
61897;SDS011;47850;50.274;18.908;2023-08-07T04:13:33;4.90;;;3.30;;
61897;SDS011;47850;50.274;18.908;2023-08-07T04:16:00;4.50;;;3.50;;
61897;SDS011;47850;50.274;18.908;2023-08-07T04:18:31;4.20;;;3.30;;
61897;SDS011;47850;50.274;18.908;2023-08-07T04:21:00;3.80;;;2.90;;
61897;SDS011;47850;50.274;18.908;2023-08-07T04:23:28;3.50;;;2.70;;
61897;SDS011;47850;50.274;18.908;2023-08-07T04:25:55;3.30;;;3.00;;
61897;SDS011;47850;50.274;18.908;2023-08-07T04:28:23;5.10;;;3.80;;
61897;SDS011;47850;50.274;18.908;2023-08-07T04:30:51;5.20;;;3.10;;
61897;SDS011;47850;50.274;18.908;2023-08-07T04:33:20;4.20;;;3.30;;
61897;SDS011;47850;50.274;18.908;2023-08-07T04:35:48;6.00;;;3.50;;
61897;SDS011;47850;50.274;18.908;2023-08-07T04:38:16;4.90;;;3.50;;
61897;SDS011;47850;50.274;18.908;2023-08-07T04:40:48;6.40;;;3.50;;
61897;SDS011;47850;50.274;18.908;2023-08-07T04:43:17;4.00;;;3.40;;
61897;SDS011;47850;50.274;18.908;2023-08-07T04:45:47;2.60;;;2.40;;
61897;SDS011;47850;50.274;18.908;2023-08-07T04:48:15;4.00;;;2.80;;
61897;SDS011;47850;50.274;18.908;2023-08-07T04:50:45;4.20;;;2.70;;
61897;SDS011;47850;50.274;18.908;2023-08-07T04:53:12;2.80;;;2.40;;
61897;SDS011;47850;50.274;18.908;2023-08-07T04:55:40;2.50;;;2.20;;
61897;SDS011;47850;50.274;18.908;2023-08-07T04:58:08;2.20;;;1.50;;
61897;SDS011;47850;50.274;18.908;2023-08-07T05:00:36;3.60;;;2.30;;
61897;SDS011;47850;50.274;18.908;2023-08-07T05:03:04;1.90;;;1.70;;
61897;SDS011;47850;50.274;18.908;2023-08-07T05:05:32;4.50;;;2.20;;
61897;SDS011;47850;50.274;18.908;2023-08-07T05:07:59;1.80;;;1.40;;
61897;SDS011;47850;50.274;18.908;2023-08-07T05:10:27;2.70;;;1.60;;
61897;SDS011;47850;50.274;18.908;2023-08-07T05:12:55;3.00;;;1.90;;
61897;SDS011;47850;50.274;18.908;2023-08-07T05:15:23;2.80;;;1.70;;
61897;SDS011;47850;50.274;18.908;2023-08-07T05:17:52;2.60;;;1.60;;
61897;SDS011;47850;50.274;18.908;2023-08-07T05:20:20;4.40;;;1.90;;
61897;SDS011;47850;50.274;18.908;2023-08-07T05:22:48;3.50;;;2.00;;
61897;SDS011;47850;50.274;18.908;2023-08-07T05:25:16;3.00;;;2.30;;
61897;SDS011;47850;50.274;18.908;2023-08-07T05:27:44;3.60;;;2.10;;
61897;SDS011;47850;50.274;18.908;2023-08-07T05:30:13;2.70;;;1.90;;
61897;SDS011;47850;50.274;18.908;2023-08-07T05:32:42;7.80;;;2.60;;
61897;SDS011;47850;50.274;18.908;2023-08-07T05:35:10;2.90;;;1.70;;
61897;SDS011;47850;50.274;18.908;2023-08-07T05:37:38;2.10;;;1.90;;
61897;SDS011;47850;50.274;18.908;2023-08-07T05:40:06;4.60;;;1.70;;
61897;SDS011;47850;50.274;18.908;2023-08-07T05:42:34;2.40;;;2.10;;
61897;SDS011;47850;50.274;18.908;2023-08-07T05:45:02;2.70;;;1.90;;
61897;SDS011;47850;50.274;18.908;2023-08-07T05:47:32;2.50;;;1.80;;
61897;SDS011;47850;50.274;18.908;2023-08-07T05:49:59;2.90;;;2.20;;
61897;SDS011;47850;50.274;18.908;2023-08-07T05:52:28;3.50;;;2.20;;
61897;SDS011;47850;50.274;18.908;2023-08-07T05:54:56;3.40;;;2.70;;
61897;SDS011;47850;50.274;18.908;2023-08-07T05:57:23;3.90;;;2.40;;
61897;SDS011;47850;50.274;18.908;2023-08-07T05:59:51;2.80;;;2.20;;
61897;SDS011;47850;50.274;18.908;2023-08-07T06:02:19;4.10;;;2.50;;
61897;SDS011;47850;50.274;18.908;2023-08-07T06:04:47;3.90;;;2.70;;
61897;SDS011;47850;50.274;18.908;2023-08-07T06:07:16;2.40;;;1.40;;
61897;SDS011;47850;50.274;18.908;2023-08-07T06:09:43;3.50;;;2.10;;
61897;SDS011;47850;50.274;18.908;2023-08-07T06:12:11;2.10;;;1.50;;
61897;SDS011;47850;50.274;18.908;2023-08-07T06:14:39;3.40;;;1.70;;
61897;SDS011;47850;50.274;18.908;2023-08-07T06:17:07;1.50;;;1.40;;
61897;SDS011;47850;50.274;18.908;2023-08-07T06:19:35;3.20;;;1.50;;
61897;SDS011;47850;50.274;18.908;2023-08-07T06:22:02;5.30;;;1.80;;
61897;SDS011;47850;50.274;18.908;2023-08-07T06:24:30;3.70;;;1.40;;
61897;SDS011;47850;50.274;18.908;2023-08-07T06:27:02;5.20;;;1.40;;
61897;SDS011;47850;50.274;18.908;2023-08-07T06:29:30;5.30;;;1.30;;
61897;SDS011;47850;50.274;18.908;2023-08-07T06:31:58;3.60;;;1.30;;
61897;SDS011;47850;50.274;18.908;2023-08-07T06:34:25;1.60;;;1.30;;
61897;SDS011;47850;50.274;18.908;2023-08-07T06:36:53;1.40;;;1.10;;
61897;SDS011;47850;50.274;18.908;2023-08-07T06:39:21;1.40;;;1.00;;
61897;SDS011;47850;50.274;18.908;2023-08-07T06:41:49;1.10;;;0.90;;
61897;SDS011;47850;50.274;18.908;2023-08-07T06:44:17;2.10;;;1.20;;
61897;SDS011;47850;50.274;18.908;2023-08-07T06:46:45;1.20;;;0.90;;
61897;SDS011;47850;50.274;18.908;2023-08-07T06:49:13;1.80;;;1.20;;
61897;SDS011;47850;50.274;18.908;2023-08-07T06:51:41;1.80;;;1.10;;
61897;SDS011;47850;50.274;18.908;2023-08-07T06:54:08;1.90;;;0.90;;
61897;SDS011;47850;50.274;18.908;2023-08-07T06:56:36;2.00;;;1.20;;
61897;SDS011;47850;50.274;18.908;2023-08-07T06:59:08;2.50;;;1.00;;
61897;SDS011;47850;50.274;18.908;2023-08-07T07:01:36;2.10;;;1.00;;
61897;SDS011;47850;50.274;18.908;2023-08-07T07:04:03;1.60;;;1.10;;
61897;SDS011;47850;50.274;18.908;2023-08-07T07:06:31;1.70;;;1.10;;
61897;SDS011;47850;50.274;18.908;2023-08-07T07:08:59;2.40;;;1.10;;
61897;SDS011;47850;50.274;18.908;2023-08-07T07:11:27;1.20;;;1.00;;
61897;SDS011;47850;50.274;18.908;2023-08-07T07:13:55;1.40;;;1.10;;
61897;SDS011;47850;50.274;18.908;2023-08-07T07:16:22;2.10;;;0.80;;
61897;SDS011;47850;50.274;18.908;2023-08-07T07:18:50;2.40;;;1.00;;
61897;SDS011;47850;50.274;18.908;2023-08-07T07:21:18;2.40;;;0.80;;
61897;SDS011;47850;50.274;18.908;2023-08-07T07:23:47;1.90;;;0.90;;
61897;SDS011;47850;50.274;18.908;2023-08-07T07:26:15;2.30;;;0.90;;
61897;SDS011;47850;50.274;18.908;2023-08-07T07:28:43;1.40;;;1.00;;
61897;SDS011;47850;50.274;18.908;2023-08-07T07:31:11;1.40;;;0.70;;
61897;SDS011;47850;50.274;18.908;2023-08-07T07:33:38;1.80;;;0.90;;
61897;SDS011;47850;50.274;18.908;2023-08-07T07:36:15;2.00;;;0.90;;
61897;SDS011;47850;50.274;18.908;2023-08-07T07:38:46;1.60;;;0.90;;
61897;SDS011;47850;50.274;18.908;2023-08-07T07:41:15;1.50;;;0.90;;
61897;SDS011;47850;50.274;18.908;2023-08-07T07:43:43;1.10;;;0.90;;
61897;SDS011;47850;50.274;18.908;2023-08-07T07:46:11;1.00;;;0.70;;
61897;SDS011;47850;50.274;18.908;2023-08-07T07:48:39;2.50;;;0.80;;
61897;SDS011;47850;50.274;18.908;2023-08-07T07:51:06;2.30;;;0.80;;
61897;SDS011;47850;50.274;18.908;2023-08-07T07:53:34;1.50;;;0.90;;
61897;SDS011;47850;50.274;18.908;2023-08-07T07:56:02;2.40;;;1.20;;
61897;SDS011;47850;50.274;18.908;2023-08-07T07:58:30;3.30;;;1.10;;
61897;SDS011;47850;50.274;18.908;2023-08-07T08:00:58;1.70;;;1.00;;
61897;SDS011;47850;50.274;18.908;2023-08-07T08:03:25;2.20;;;1.10;;
61897;SDS011;47850;50.274;18.908;2023-08-07T08:05:53;2.70;;;1.10;;
61897;SDS011;47850;50.274;18.908;2023-08-07T08:08:21;5.10;;;1.20;;
61897;SDS011;47850;50.274;18.908;2023-08-07T08:10:49;1.10;;;0.80;;
61897;SDS011;47850;50.274;18.908;2023-08-07T08:13:18;3.70;;;1.10;;
61897;SDS011;47850;50.274;18.908;2023-08-07T08:15:46;2.10;;;1.40;;
61897;SDS011;47850;50.274;18.908;2023-08-07T08:18:14;2.30;;;1.40;;
61897;SDS011;47850;50.274;18.908;2023-08-07T08:20:42;3.50;;;2.00;;
61897;SDS011;47850;50.274;18.908;2023-08-07T08:23:09;2.70;;;1.20;;
61897;SDS011;47850;50.274;18.908;2023-08-07T08:25:37;2.30;;;1.50;;
61897;SDS011;47850;50.274;18.908;2023-08-07T08:28:05;2.30;;;1.30;;
61897;SDS011;47850;50.274;18.908;2023-08-07T08:30:33;3.40;;;1.20;;
61897;SDS011;47850;50.274;18.908;2023-08-07T08:33:00;3.70;;;1.00;;
61897;SDS011;47850;50.274;18.908;2023-08-07T08:35:28;2.00;;;1.00;;
61897;SDS011;47850;50.274;18.908;2023-08-07T08:37:56;2.80;;;1.10;;
61897;SDS011;47850;50.274;18.908;2023-08-07T08:40:24;3.20;;;1.00;;
61897;SDS011;47850;50.274;18.908;2023-08-07T08:42:52;1.80;;;1.10;;
61897;SDS011;47850;50.274;18.908;2023-08-07T08:45:25;3.20;;;1.10;;
61897;SDS011;47850;50.274;18.908;2023-08-07T08:47:54;2.10;;;1.10;;
61897;SDS011;47850;50.274;18.908;2023-08-07T08:50:28;1.60;;;1.00;;
61897;SDS011;47850;50.274;18.908;2023-08-07T08:52:56;1.80;;;1.10;;
61897;SDS011;47850;50.274;18.908;2023-08-07T08:55:24;1.80;;;1.10;;
61897;SDS011;47850;50.274;18.908;2023-08-07T08:57:54;1.30;;;0.90;;
61897;SDS011;47850;50.274;18.908;2023-08-07T09:00:22;1.40;;;1.00;;
61897;SDS011;47850;50.274;18.908;2023-08-07T09:02:53;1.60;;;1.10;;
61897;SDS011;47850;50.274;18.908;2023-08-07T09:05:21;3.30;;;1.10;;
61897;SDS011;47850;50.274;18.908;2023-08-07T09:07:49;1.40;;;1.00;;
61897;SDS011;47850;50.274;18.908;2023-08-07T09:10:17;2.90;;;1.00;;
61897;SDS011;47850;50.274;18.908;2023-08-07T09:12:53;1.70;;;0.90;;
61897;SDS011;47850;50.274;18.908;2023-08-07T09:15:27;1.60;;;1.10;;
61897;SDS011;47850;50.274;18.908;2023-08-07T09:17:57;1.60;;;1.10;;
61897;SDS011;47850;50.274;18.908;2023-08-07T09:20:26;1.20;;;0.80;;
61897;SDS011;47850;50.274;18.908;2023-08-07T09:22:55;1.00;;;0.80;;
61897;SDS011;47850;50.274;18.908;2023-08-07T09:25:27;1.50;;;1.10;;
61897;SDS011;47850;50.274;18.908;2023-08-07T09:27:56;1.30;;;1.00;;
61897;SDS011;47850;50.274;18.908;2023-08-07T09:30:27;1.90;;;1.00;;
61897;SDS011;47850;50.274;18.908;2023-08-07T09:32:57;3.60;;;1.20;;
61897;SDS011;47850;50.274;18.908;2023-08-07T09:35:26;1.60;;;1.00;;
61897;SDS011;47850;50.274;18.908;2023-08-07T09:37:56;1.90;;;1.10;;
61897;SDS011;47850;50.274;18.908;2023-08-07T09:40:25;1.70;;;1.00;;
61897;SDS011;47850;50.274;18.908;2023-08-07T09:42:53;2.50;;;1.10;;
61897;SDS011;47850;50.274;18.908;2023-08-07T09:45:22;1.90;;;1.20;;
61897;SDS011;47850;50.274;18.908;2023-08-07T09:48:04;1.50;;;1.10;;
61897;SDS011;47850;50.274;18.908;2023-08-07T09:50:37;1.60;;;1.20;;
61897;SDS011;47850;50.274;18.908;2023-08-07T09:53:05;2.20;;;1.30;;
61897;SDS011;47850;50.274;18.908;2023-08-07T09:55:33;1.40;;;0.80;;
61897;SDS011;47850;50.274;18.908;2023-08-07T09:58:01;2.20;;;1.00;;
61897;SDS011;47850;50.274;18.908;2023-08-07T10:00:33;2.10;;;1.10;;
61897;SDS011;47850;50.274;18.908;2023-08-07T10:03:04;4.60;;;1.10;;
61897;SDS011;47850;50.274;18.908;2023-08-07T10:05:32;1.70;;;1.20;;
61897;SDS011;47850;50.274;18.908;2023-08-07T10:08:00;2.10;;;1.10;;
61897;SDS011;47850;50.274;18.908;2023-08-07T10:10:28;1.50;;;1.00;;
61897;SDS011;47850;50.274;18.908;2023-08-07T10:12:58;2.50;;;1.50;;
61897;SDS011;47850;50.274;18.908;2023-08-07T10:15:29;3.60;;;1.80;;
61897;SDS011;47850;50.274;18.908;2023-08-07T10:17:58;3.00;;;1.70;;
61897;SDS011;47850;50.274;18.908;2023-08-07T10:20:27;3.50;;;1.60;;
61897;SDS011;47850;50.274;18.908;2023-08-07T10:22:57;2.80;;;1.90;;
61897;SDS011;47850;50.274;18.908;2023-08-07T10:25:29;3.60;;;2.10;;
61897;SDS011;47850;50.274;18.908;2023-08-07T10:27:57;4.30;;;2.60;;
61897;SDS011;47850;50.274;18.908;2023-08-07T10:30:27;3.50;;;2.20;;
61897;SDS011;47850;50.274;18.908;2023-08-07T10:32:57;3.40;;;2.30;;
61897;SDS011;47850;50.274;18.908;2023-08-07T10:35:30;5.30;;;2.80;;
61897;SDS011;47850;50.274;18.908;2023-08-07T10:38:09;4.20;;;2.80;;
61897;SDS011;47850;50.274;18.908;2023-08-07T10:43:39;6.70;;;2.30;;
61897;SDS011;47850;50.274;18.908;2023-08-07T10:46:12;5.20;;;2.40;;
61897;SDS011;47850;50.274;18.908;2023-08-07T10:48:41;5.50;;;2.70;;
61897;SDS011;47850;50.274;18.908;2023-08-07T10:51:14;5.30;;;2.30;;
61897;SDS011;47850;50.274;18.908;2023-08-07T10:53:45;5.40;;;2.30;;
61897;SDS011;47850;50.274;18.908;2023-08-07T10:56:16;5.30;;;2.60;;
61897;SDS011;47850;50.274;18.908;2023-08-07T10:59:11;4.50;;;2.20;;
61897;SDS011;47850;50.274;18.908;2023-08-07T11:01:40;6.70;;;2.40;;
61897;SDS011;47850;50.274;18.908;2023-08-07T11:04:10;4.90;;;2.40;;
61897;SDS011;47850;50.274;18.908;2023-08-07T11:06:40;4.60;;;2.40;;
61897;SDS011;47850;50.274;18.908;2023-08-07T11:09:09;7.10;;;2.40;;
61897;SDS011;47850;50.274;18.908;2023-08-07T11:11:47;9.30;;;3.70;;
61897;SDS011;47850;50.274;18.908;2023-08-07T11:14:16;10.20;;;3.90;;
61897;SDS011;47850;50.274;18.908;2023-08-07T11:16:46;13.10;;;4.10;;
61897;SDS011;47850;50.274;18.908;2023-08-07T11:19:16;16.10;;;4.70;;
61897;SDS011;47850;50.274;18.908;2023-08-07T11:21:45;13.10;;;4.10;;
61897;SDS011;47850;50.274;18.908;2023-08-07T11:24:13;12.20;;;3.40;;
61897;SDS011;47850;50.274;18.908;2023-08-07T11:26:44;8.10;;;3.70;;
61897;SDS011;47850;50.274;18.908;2023-08-07T11:29:16;9.30;;;3.50;;
61897;SDS011;47850;50.274;18.908;2023-08-07T11:31:45;6.40;;;2.60;;
61897;SDS011;47850;50.274;18.908;2023-08-07T11:34:14;4.10;;;2.20;;
61897;SDS011;47850;50.274;18.908;2023-08-07T11:36:45;3.90;;;2.40;;
61897;SDS011;47850;50.274;18.908;2023-08-07T11:39:14;3.80;;;2.30;;
61897;SDS011;47850;50.274;18.908;2023-08-07T11:41:44;4.40;;;2.10;;
61897;SDS011;47850;50.274;18.908;2023-08-07T11:44:12;4.00;;;2.20;;
61897;SDS011;47850;50.274;18.908;2023-08-07T11:46:40;4.40;;;2.20;;
61897;SDS011;47850;50.274;18.908;2023-08-07T11:49:08;4.30;;;2.40;;
61897;SDS011;47850;50.274;18.908;2023-08-07T11:51:37;7.20;;;3.40;;
61897;SDS011;47850;50.274;18.908;2023-08-07T11:54:05;5.30;;;3.50;;
61897;SDS011;47850;50.274;18.908;2023-08-07T11:56:33;7.00;;;3.40;;
61897;SDS011;47850;50.274;18.908;2023-08-07T11:59:01;4.00;;;2.70;;
61897;SDS011;47850;50.274;18.908;2023-08-07T12:01:30;4.50;;;2.70;;
61897;SDS011;47850;50.274;18.908;2023-08-07T12:06:33;2.80;;;2.30;;
61897;SDS011;47850;50.274;18.908;2023-08-07T12:09:02;3.40;;;2.30;;
61897;SDS011;47850;50.274;18.908;2023-08-07T12:11:30;5.00;;;2.00;;
61897;SDS011;47850;50.274;18.908;2023-08-07T12:13:59;4.90;;;2.10;;
61897;SDS011;47850;50.274;18.908;2023-08-07T12:19:00;5.70;;;2.60;;
61897;SDS011;47850;50.274;18.908;2023-08-07T12:21:28;5.30;;;2.30;;
61897;SDS011;47850;50.274;18.908;2023-08-07T12:23:59;5.80;;;2.30;;
61897;SDS011;47850;50.274;18.908;2023-08-07T12:26:27;4.80;;;2.40;;
61897;SDS011;47850;50.274;18.908;2023-08-07T12:28:55;3.20;;;2.40;;
61897;SDS011;47850;50.274;18.908;2023-08-07T12:31:23;8.90;;;6.40;;
61897;SDS011;47850;50.274;18.908;2023-08-07T12:33:51;4.70;;;2.70;;
61897;SDS011;47850;50.274;18.908;2023-08-07T12:36:19;3.50;;;2.20;;
61897;SDS011;47850;50.274;18.908;2023-08-07T12:38:46;3.50;;;2.00;;
61897;SDS011;47850;50.274;18.908;2023-08-07T12:41:15;4.90;;;2.60;;
61897;SDS011;47850;50.274;18.908;2023-08-07T12:43:43;5.10;;;2.50;;
61897;SDS011;47850;50.274;18.908;2023-08-07T12:46:11;4.40;;;2.90;;
61897;SDS011;47850;50.274;18.908;2023-08-07T12:48:39;6.40;;;2.60;;
61897;SDS011;47850;50.274;18.908;2023-08-07T12:51:07;4.90;;;2.80;;
61897;SDS011;47850;50.274;18.908;2023-08-07T12:53:35;4.00;;;2.30;;
61897;SDS011;47850;50.274;18.908;2023-08-07T12:56:03;3.30;;;2.40;;
61897;SDS011;47850;50.274;18.908;2023-08-07T12:58:32;4.60;;;2.70;;
61897;SDS011;47850;50.274;18.908;2023-08-07T13:01:00;3.60;;;2.30;;
61897;SDS011;47850;50.274;18.908;2023-08-07T13:03:28;4.60;;;2.90;;
61897;SDS011;47850;50.274;18.908;2023-08-07T13:05:55;3.90;;;2.30;;
61897;SDS011;47850;50.274;18.908;2023-08-07T13:08:23;4.70;;;2.60;;
61897;SDS011;47850;50.274;18.908;2023-08-07T13:10:51;3.30;;;1.90;;
61897;SDS011;47850;50.274;18.908;2023-08-07T13:13:19;4.10;;;2.60;;
61897;SDS011;47850;50.274;18.908;2023-08-07T13:15:47;3.90;;;2.40;;
61897;SDS011;47850;50.274;18.908;2023-08-07T13:18:14;4.00;;;2.00;;
61897;SDS011;47850;50.274;18.908;2023-08-07T13:20:44;3.90;;;1.70;;
61897;SDS011;47850;50.274;18.908;2023-08-07T13:23:13;4.20;;;2.00;;
61897;SDS011;47850;50.274;18.908;2023-08-07T13:25:41;3.50;;;2.00;;
61897;SDS011;47850;50.274;18.908;2023-08-07T13:28:09;3.60;;;2.00;;
61897;SDS011;47850;50.274;18.908;2023-08-07T13:30:37;3.00;;;1.70;;
61897;SDS011;47850;50.274;18.908;2023-08-07T13:33:11;4.10;;;2.10;;
61897;SDS011;47850;50.274;18.908;2023-08-07T13:35:38;5.00;;;2.30;;
61897;SDS011;47850;50.274;18.908;2023-08-07T13:38:06;4.30;;;2.50;;
61897;SDS011;47850;50.274;18.908;2023-08-07T13:40:35;3.60;;;1.90;;
61897;SDS011;47850;50.274;18.908;2023-08-07T13:43:03;2.90;;;1.80;;
61897;SDS011;47850;50.274;18.908;2023-08-07T13:45:35;4.50;;;2.20;;
61897;SDS011;47850;50.274;18.908;2023-08-07T13:48:04;4.40;;;1.90;;
61897;SDS011;47850;50.274;18.908;2023-08-07T13:50:33;6.30;;;2.20;;
61897;SDS011;47850;50.274;18.908;2023-08-07T13:53:01;3.20;;;1.50;;
61897;SDS011;47850;50.274;18.908;2023-08-07T13:55:29;2.70;;;1.80;;
61897;SDS011;47850;50.274;18.908;2023-08-07T13:57:57;2.10;;;1.50;;
61897;SDS011;47850;50.274;18.908;2023-08-07T14:00:24;2.00;;;1.60;;
61897;SDS011;47850;50.274;18.908;2023-08-07T14:02:53;5.60;;;3.70;;
61897;SDS011;47850;50.274;18.908;2023-08-07T14:05:21;3.60;;;1.90;;
61897;SDS011;47850;50.274;18.908;2023-08-07T14:07:49;3.10;;;1.70;;
61897;SDS011;47850;50.274;18.908;2023-08-07T14:10:17;3.00;;;1.80;;
61897;SDS011;47850;50.274;18.908;2023-08-07T14:12:45;3.10;;;1.60;;
61897;SDS011;47850;50.274;18.908;2023-08-07T14:15:14;2.70;;;1.70;;
61897;SDS011;47850;50.274;18.908;2023-08-07T14:17:42;2.90;;;1.60;;
61897;SDS011;47850;50.274;18.908;2023-08-07T14:20:10;3.60;;;1.70;;
61897;SDS011;47850;50.274;18.908;2023-08-07T14:22:38;3.10;;;2.00;;
61897;SDS011;47850;50.274;18.908;2023-08-07T14:25:10;3.40;;;2.30;;
61897;SDS011;47850;50.274;18.908;2023-08-07T14:27:38;4.00;;;1.80;;
61897;SDS011;47850;50.274;18.908;2023-08-07T14:30:06;2.90;;;1.80;;
61897;SDS011;47850;50.274;18.908;2023-08-07T14:32:34;4.60;;;2.50;;
61897;SDS011;47850;50.274;18.908;2023-08-07T14:35:02;4.70;;;1.90;;
61897;SDS011;47850;50.274;18.908;2023-08-07T14:37:31;3.30;;;1.90;;
61897;SDS011;47850;50.274;18.908;2023-08-07T14:40:02;3.60;;;2.00;;
61897;SDS011;47850;50.274;18.908;2023-08-07T14:42:30;5.20;;;2.00;;
61897;SDS011;47850;50.274;18.908;2023-08-07T14:44:58;3.60;;;1.80;;
61897;SDS011;47850;50.274;18.908;2023-08-07T14:47:26;3.40;;;1.90;;
61897;SDS011;47850;50.274;18.908;2023-08-07T14:49:54;4.80;;;2.00;;
61897;SDS011;47850;50.274;18.908;2023-08-07T14:52:22;5.60;;;2.10;;
61897;SDS011;47850;50.274;18.908;2023-08-07T14:54:49;4.00;;;1.90;;
61897;SDS011;47850;50.274;18.908;2023-08-07T14:57:17;3.80;;;1.50;;
61897;SDS011;47850;50.274;18.908;2023-08-07T14:59:45;7.30;;;2.10;;
61897;SDS011;47850;50.274;18.908;2023-08-07T15:02:13;3.80;;;2.10;;
61897;SDS011;47850;50.274;18.908;2023-08-07T15:04:41;6.70;;;2.20;;
61897;SDS011;47850;50.274;18.908;2023-08-07T15:07:09;6.10;;;2.50;;